»·PEaware :: N275ND KSNA-KSNA

N275ND :: KSNA-KSNA

FLIGHT INFORMATION

Flight Status: Arrived
Operator: Privately registered:
United States
More flights under this callsign
Pilot: John A. (19135)
Aircraft: CESSNA 172 SKYHAWK
(C172)
More flights by this aircraft type
Origin: KSNA John Wayne-Orange Co
United States
Destination: KSNA John Wayne-Orange Co
United States
More flights between these airports :: More routes between these airports
Route: SLI
File this flight plan on PilotEdge
Remarks: I-1 Rating
Altitude:
(Current/Filed)
3,000ft
Speed:
(Current/Filed)
120kts
Departed: 21-Jul-19 10:04 AM
Arrived: 21-Jul-19 10:26 AM
Distance/Time
Traveled:
0nm/0:22
Distance/Time
To Go:
Arrived

Flight Plot

Page will automatically refresh every two minutes.


Map Options




Map Legend


Flown Route
Filed Route
Departure Airport
Arrival Airport
Navaid (VOR, NDB)
Fix

Horizontal Profiles

Position Reports

Time Latitude Longitude Heading Altitude Ground
Speed
21-Jul-19 09:44 33.668170 -117.871125 215 60ft 0kts
21-Jul-19 09:45 33.668170 -117.871125 215 60ft 0kts
21-Jul-19 09:46 33.668170 -117.871125 215 60ft 0kts
21-Jul-19 09:47 33.668170 -117.871125 215 60ft 0kts
21-Jul-19 09:48 33.668170 -117.871125 215 60ft 0kts
21-Jul-19 09:49 33.668170 -117.871125 215 60ft 0kts
21-Jul-19 09:50 33.668170 -117.871125 215 60ft 0kts
21-Jul-19 09:51 33.668170 -117.871125 215 60ft 0kts
21-Jul-19 09:52 33.668170 -117.871125 215 60ft 0kts
21-Jul-19 09:53 33.668170 -117.871125 215 60ft 0kts
21-Jul-19 09:54 33.668170 -117.871125 215 60ft 0kts
21-Jul-19 09:55 33.668169 -117.871125 215 60ft 0kts
21-Jul-19 09:56 33.670074 -117.869967 42 60ft 21kts
21-Jul-19 09:57 33.673641 -117.867133 338 60ft 6kts
21-Jul-19 09:58 33.677799 -117.864767 30 60ft 11kts
21-Jul-19 09:59 33.679478 -117.863672 27 60ft 0kts
21-Jul-19 10:00 33.679950 -117.863506 301 60ft 0kts
21-Jul-19 10:01 33.679950 -117.863506 300 60ft 0kts
21-Jul-19 10:02 33.679921 -117.864301 219 60ft 0kts
21-Jul-19 10:03 33.665216 -117.876384 243 522ft 88kts
21-Jul-19 10:04 33.653122 -117.905464 243 1502ft 92kts
21-Jul-19 10:05 33.638460 -117.934086 239 2076ft 104kts
21-Jul-19 10:06 33.624920 -117.964309 250 2560ft 95kts
21-Jul-19 10:07 33.623326 -117.992739 347 3030ft 112kts
21-Jul-19 10:08 33.650270 -117.974305 33 3000ft 117kts
21-Jul-19 10:09 33.676726 -117.953088 35 2962ft 110kts
21-Jul-19 10:10 33.703137 -117.933592 25 2989ft 112kts
21-Jul-19 10:11 33.729618 -117.913715 36 3038ft 112kts
21-Jul-19 10:12 33.756261 -117.893483 32 3071ft 113kts
21-Jul-19 10:13 33.783535 -117.873795 34 3025ft 118kts
21-Jul-19 10:14 33.810680 -117.852087 31 3004ft 114kts
21-Jul-19 10:15 33.838406 -117.831747 26 2959ft 114kts
21-Jul-19 10:16 33.860138 -117.808503 93 2999ft 115kts
21-Jul-19 10:17 33.858613 -117.770968 92 2963ft 110kts
21-Jul-19 10:18 33.834624 -117.768627 203 2927ft 105kts
21-Jul-19 10:19 33.807320 -117.782637 212 2932ft 118kts
21-Jul-19 10:20 33.782668 -117.800492 219 2742ft 89kts
21-Jul-19 10:21 33.760961 -117.816992 214 2130ft 91kts
21-Jul-19 10:22 33.738096 -117.829609 197 1530ft 97kts
21-Jul-19 10:23 33.714319 -117.844344 208 724ft 86kts
21-Jul-19 10:24 33.695081 -117.856468 208 383ft 74kts
21-Jul-19 10:25 33.679371 -117.866516 208 60ft 40kts
21-Jul-19 10:26 33.677302 -117.866580 107 60ft 0kts
21-Jul-19 10:27 33.677112 -117.866164 121 60ft 14kts
21-Jul-19 10:28 33.672433 -117.867918 207 60ft 17kts
21-Jul-19 10:29 33.667972 -117.870802 177 60ft 2kts
21-Jul-19 10:30 33.667924 -117.870823 215 60ft 0kts
21-Jul-19 10:31 33.667924 -117.870823 215 60ft 0kts
21-Jul-19 10:32 33.667924 -117.870823 215 60ft 0kts
21-Jul-19 10:33 33.667924 -117.870823 215 60ft 0kts
21-Jul-19 10:34 33.667924 -117.870823 215 60ft 0kts
21-Jul-19 10:35 33.667924 -117.870823 215 60ft 0kts
21-Jul-19 10:36 33.667924 -117.870823 215 60ft 0kts

Navigation Log

Ident Type
Flight plan parsing failed, navigation log unavailable